Arlington, Massachusetts
Current Conditions -  °F | °C
As of 3:08 PM on Monday 24 Nov 2014 (Local Time) from KBED Reporting Station
Overcast Overcast  
Wind Chill: 18°   Ceiling: 2600
Heat Index: 18°   Visibility: 10mi
Dew Point: 16°   Wind: 12mph
Humidity: 87%   Direction: 190°S
Pressure: 29.58"   Gusts: NA
Location:  42.42°N, 71.16°W
Report Text: KBED 242008Z 19010KT 10SM SCT018 BKN026 OVC042 18/16 A2958 RMK AO2 T01830161
Loading
Personal Weather Stations






























Interactive Weather Map New forecast layout! Learn more

10-Day Weather Forecast

Advertisements
Track Severe Weather on mobile